Nireas — SX9654 — position and weather

sailwx.info

Track history (hours):
 
Tides and Currents Weather Stations Pressure Air Temp Water Temp Dewpoint Dewpoint Depression Visibility Wind Speed Wind Dir Waves Ship Positions

Nireas

Last reported at 2016-Jan-14 13:24 UTC. Time now 2016-Jul-01 15:23 UTC.
Position N 38°15' E 020°59'.
Warning: this ship's position is months out of date.

Length 61 m; draft 2.5 m.

Type: Passenger vessel. MMSI: 237470300.

Date/timePositionNaut miles runAvg speedWind from/ knotsBaromVisibWave heightAir tempDewpointWater temp
2016-Jan-14 13:24N 38°15' E 020°59'9 9.7
2016-Jan-14 12:32N 38°14' E 021°10'1110.8
2016-Jan-14 11:33N 38°15' E 021°23'86 9.6
2016-Jan-14 02:33N 37°53' E 023°09'10 9.7
2016-Jan-14 01:33N 37°51' E 023°21'5 5.2
2016-Jan-14 00:33N 37°50' E 023°28'4 4.3
2016-Jan-13 23:33N 37°50' E 023°33'5 5.4
2016-Jan-13 22:33N 37°55' E 023°36'2 2.4
2016-Jan-13 21:33N 37°57' E 023°36'0 0.0
2016-Jan-13 20:33N 37°57' E 023°36'0 0.0
2016-Jan-13 19:33N 37°57' E 023°36'0 0.0
2016-Jan-13 18:33N 37°57' E 023°36'0 0.0
2016-Jan-13 17:33N 37°57' E 023°36'  
2016-Jan-08 11:33N 37°57' E 023°36'4 3.7
2016-Jan-08 10:33N 37°54' E 023°35'4 3.8
2016-Jan-08 09:33N 37°58' E 023°34'0 0.0
2016-Jan-08 08:33N 37°58' E 023°34'0 0.0
2016-Jan-08 07:33N 37°58' E 023°34'0 0.0
2016-Jan-08 06:33N 37°58' E 023°34'0 0.0
2016-Jan-08 05:33N 37°58' E 023°34'0 0.0
2016-Jan-08 04:34N 37°58' E 023°34'0 0.0
2016-Jan-08 03:33N 37°58' E 023°34'0 0.0
2016-Jan-08 02:34N 37°58' E 023°34'0 0.0
2016-Jan-08 01:34N 37°58' E 023°34'0 0.0
2016-Jan-08 00:33N 37°58' E 023°34'0 0.0
2016-Jan-07 23:33N 37°58' E 023°34'0 0.0
2016-Jan-07 22:33N 37°58' E 023°34'0 0.0
2016-Jan-07 21:34N 37°58' E 023°34'0 0.0
2016-Jan-07 20:33N 37°58' E 023°34'0 0.0
2016-Jan-07 19:34N 37°58' E 023°34'0 0.0
2016-Jan-07 18:33N 37°58' E 023°34'0 0.0
2016-Jan-07 17:33N 37°58' E 023°34'0 0.0
2016-Jan-07 16:33N 37°58' E 023°34'0 0.0
2016-Jan-07 15:33N 37°58' E 023°34'0 0.0
2016-Jan-06 16:29N 37°58' E 023°34'0 0.0
2016-Jan-06 15:33N 37°58' E 023°34'0 0.0
2016-Jan-06 14:33N 37°58' E 023°34'0 0.0
2016-Jan-06 13:33N 37°58' E 023°34'0 0.0
2016-Jan-06 12:33N 37°58' E 023°34'0 0.0
2016-Jan-06 11:34N 37°58' E 023°34'0 0.0
2016-Jan-06 10:33N 37°58' E 023°34'0 0.0
2016-Jan-06 09:33N 37°58' E 023°34'0 0.0
2016-Jan-06 08:33N 37°58' E 023°34'0 0.0
2016-Jan-06 07:33N 37°58' E 023°34'0 0.0
2016-Jan-06 06:34N 37°58' E 023°34'0 0.0
2016-Jan-06 05:33N 37°58' E 023°34'0 0.0
2016-Jan-06 04:33N 37°58' E 023°34'0 0.0
2016-Jan-06 03:33N 37°58' E 023°34'0 0.0
2016-Jan-06 02:33N 37°58' E 023°34'0 0.0
2016-Jan-06 01:33N 37°58' E 023°34'0 0.0
2016-Jan-06 00:33N 37°58' E 023°34'0 0.0
2016-Jan-05 23:33N 37°58' E 023°34'0 0.0
2016-Jan-05 22:33N 37°58' E 023°34'0 0.0
2016-Jan-05 21:33N 37°58' E 023°34'0 0.0
2016-Jan-05 20:33N 37°58' E 023°34'0 0.0
2016-Jan-05 19:33N 37°58' E 023°34'0 0.0
2016-Jan-05 18:33N 37°58' E 023°34'0 0.0
2016-Jan-05 17:33N 37°58' E 023°34'0 0.0
2016-Jan-05 16:34N 37°58' E 023°34'0 0.0
2016-Jan-05 15:34N 37°58' E 023°34'0 0.0
2016-Jan-05 14:34N 37°58' E 023°34'0 0.0
2016-Jan-05 13:33N 37°58' E 023°34'0 0.0
2016-Jan-05 12:33N 37°58' E 023°34'0 0.0
2016-Jan-05 11:33N 37°58' E 023°34'  
Track history (hours):
 
Tides and Currents Weather Stations Pressure Air Temp Water Temp Dewpoint Dewpoint Depression Visibility Wind Speed Wind Dir Waves Ship Positions

Nireas

Last reported at 2016-Jan-14 13:24 UTC. Time now 2016-Jul-01 15:23 UTC.
Position N 38°15' E 020°59'.
Warning: this ship's position is months out of date.

Length 61 m; draft 2.5 m.

Type: Passenger vessel. MMSI: 237470300.

Date/timePositionNaut miles runAvg speedWind from/ knotsBaromVisibWave heightAir tempDewpointWater temp
2016-Jan-14 13:24N 38°15' E 020°59'9 9.7
2016-Jan-14 12:32N 38°14' E 021°10'1110.8
2016-Jan-14 11:33N 38°15' E 021°23'86 9.6
2016-Jan-14 02:33N 37°53' E 023°09'10 9.7
2016-Jan-14 01:33N 37°51' E 023°21'5 5.2
2016-Jan-14 00:33N 37°50' E 023°28'4 4.3
2016-Jan-13 23:33N 37°50' E 023°33'5 5.4
2016-Jan-13 22:33N 37°55' E 023°36'2 2.4
2016-Jan-13 21:33N 37°57' E 023°36'0 0.0
2016-Jan-13 20:33N 37°57' E 023°36'0 0.0
2016-Jan-13 19:33N 37°57' E 023°36'0 0.0
2016-Jan-13 18:33N 37°57' E 023°36'0 0.0
2016-Jan-13 17:33N 37°57' E 023°36'  
2016-Jan-08 11:33N 37°57' E 023°36'4 3.7
2016-Jan-08 10:33N 37°54' E 023°35'4 3.8
2016-Jan-08 09:33N 37°58' E 023°34'0 0.0
2016-Jan-08 08:33N 37°58' E 023°34'0 0.0
2016-Jan-08 07:33N 37°58' E 023°34'0 0.0
2016-Jan-08 06:33N 37°58' E 023°34'0 0.0
2016-Jan-08 05:33N 37°58' E 023°34'0 0.0
2016-Jan-08 04:34N 37°58' E 023°34'0 0.0
2016-Jan-08 03:33N 37°58' E 023°34'0 0.0
2016-Jan-08 02:34N 37°58' E 023°34'0 0.0
2016-Jan-08 01:34N 37°58' E 023°34'0 0.0
2016-Jan-08 00:33N 37°58' E 023°34'0 0.0
2016-Jan-07 23:33N 37°58' E 023°34'0 0.0
2016-Jan-07 22:33N 37°58' E 023°34'0 0.0
2016-Jan-07 21:34N 37°58' E 023°34'0 0.0
2016-Jan-07 20:33N 37°58' E 023°34'0 0.0
2016-Jan-07 19:34N 37°58' E 023°34'0 0.0
2016-Jan-07 18:33N 37°58' E 023°34'0 0.0
2016-Jan-07 17:33N 37°58' E 023°34'0 0.0
2016-Jan-07 16:33N 37°58' E 023°34'0 0.0
2016-Jan-07 15:33N 37°58' E 023°34'0 0.0
2016-Jan-06 16:29N 37°58' E 023°34'0 0.0
2016-Jan-06 15:33N 37°58' E 023°34'0 0.0
2016-Jan-06 14:33N 37°58' E 023°34'0 0.0
2016-Jan-06 13:33N 37°58' E 023°34'0 0.0
2016-Jan-06 12:33N 37°58' E 023°34'0 0.0
2016-Jan-06 11:34N 37°58' E 023°34'0 0.0
2016-Jan-06 10:33N 37°58' E 023°34'0 0.0
2016-Jan-06 09:33N 37°58' E 023°34'0 0.0
2016-Jan-06 08:33N 37°58' E 023°34'0 0.0
2016-Jan-06 07:33N 37°58' E 023°34'0 0.0
2016-Jan-06 06:34N 37°58' E 023°34'0 0.0
2016-Jan-06 05:33N 37°58' E 023°34'0 0.0
2016-Jan-06 04:33N 37°58' E 023°34'0 0.0
2016-Jan-06 03:33N 37°58' E 023°34'0 0.0
2016-Jan-06 02:33N 37°58' E 023°34'0 0.0
2016-Jan-06 01:33N 37°58' E 023°34'0 0.0
2016-Jan-06 00:33N 37°58' E 023°34'0 0.0
2016-Jan-05 23:33N 37°58' E 023°34'0 0.0
2016-Jan-05 22:33N 37°58' E 023°34'0 0.0
2016-Jan-05 21:33N 37°58' E 023°34'0 0.0
2016-Jan-05 20:33N 37°58' E 023°34'0 0.0
2016-Jan-05 19:33N 37°58' E 023°34'0 0.0
2016-Jan-05 18:33N 37°58' E 023°34'0 0.0
2016-Jan-05 17:33N 37°58' E 023°34'0 0.0
2016-Jan-05 16:34N 37°58' E 023°34'0 0.0
2016-Jan-05 15:34N 37°58' E 023°34'0 0.0
2016-Jan-05 14:34N 37°58' E 023°34'0 0.0
2016-Jan-05 13:33N 37°58' E 023°34'0 0.0
2016-Jan-05 12:33N 37°58' E 023°34'0 0.0
2016-Jan-05 11:33N 37°58' E 023°34'  

Dump ship's entire track history